createdAt,value
2024-01-15T00:00:33.491Z,26.60
2024-01-15T00:04:21.156Z,21.50
2024-01-15T00:07:48.982Z,23.90
2024-01-15T00:11:16.445Z,25.00
2024-01-15T00:14:43.715Z,23.70
2024-01-15T00:18:11.149Z,21.70
2024-01-15T00:21:39.682Z,24.20
2024-01-15T00:25:08.090Z,22.40
2024-01-15T00:28:35.398Z,24.50
2024-01-15T00:32:02.665Z,22.20
2024-01-15T00:35:29.905Z,24.70
2024-01-15T00:38:57.260Z,26.00
2024-01-15T00:42:24.260Z,27.10
2024-01-15T00:45:51.378Z,25.50
2024-01-15T00:49:19.417Z,25.50
2024-01-15T00:52:46.992Z,26.20
2024-01-15T00:56:14.353Z,27.80
2024-01-15T00:59:41.794Z,27.60
2024-01-15T01:03:09.460Z,28.10
2024-01-15T01:06:36.693Z,28.00
2024-01-15T01:10:03.978Z,28.60
2024-01-15T01:13:31.257Z,27.30
2024-01-15T01:16:58.856Z,29.30
2024-01-15T01:20:26.199Z,28.80
2024-01-15T01:23:53.422Z,27.90
2024-01-15T01:27:20.319Z,30.50
2024-01-15T01:30:47.756Z,30.00
2024-01-15T01:34:18.872Z,33.20
2024-01-15T01:37:45.913Z,24.80
2024-01-15T01:41:12.663Z,28.30
2024-01-15T01:44:39.666Z,27.70
2024-01-15T01:48:07.946Z,27.00
2024-01-15T01:51:35.657Z,26.30
2024-01-15T01:55:04.445Z,26.10
2024-01-15T01:58:32.699Z,29.00
2024-01-15T02:01:59.613Z,29.80
2024-01-15T02:05:27.444Z,27.50
2024-01-15T02:08:54.869Z,26.60
2024-01-15T02:12:22.789Z,22.10
2024-01-15T02:15:50.137Z,23.90
2024-01-15T02:19:20.587Z,24.90
2024-01-15T02:22:47.858Z,24.60
2024-01-15T02:26:16.450Z,26.20
2024-01-15T02:29:43.751Z,29.50
2024-01-15T02:33:11.843Z,26.10
2024-01-15T02:36:39.509Z,24.10
2024-01-15T02:40:08.186Z,26.40
2024-01-15T02:43:37.820Z,25.90
2024-01-15T02:50:30.376Z,27.50
2024-01-15T02:53:57.415Z,30.10
2024-01-15T02:57:24.238Z,28.10
2024-01-15T03:00:51.286Z,26.00
2024-01-15T03:04:18.212Z,27.50
2024-01-15T03:07:45.355Z,23.60
2024-01-15T03:11:12.321Z,25.10
2024-01-15T03:14:39.059Z,25.20
2024-01-15T03:18:06.901Z,29.20
2024-01-15T03:21:33.946Z,24.90
2024-01-15T03:25:00.979Z,24.30
2024-01-15T03:28:28.074Z,23.80
2024-01-15T03:31:54.940Z,23.10
2024-01-15T03:35:21.645Z,24.80
2024-01-15T03:38:48.496Z,25.20
2024-01-15T03:42:16.006Z,23.50
2024-01-15T03:45:42.891Z,22.40
2024-01-15T03:49:09.835Z,25.70
2024-01-15T03:52:37.359Z,22.70
2024-01-15T03:56:04.212Z,22.10
2024-01-15T03:59:31.226Z,23.50
2024-01-15T04:02:57.963Z,25.60
2024-01-15T04:06:25.114Z,23.60
2024-01-15T04:09:51.943Z,25.10
2024-01-15T04:13:18.766Z,24.30
2024-01-15T04:16:45.616Z,27.90
2024-01-15T04:20:14.026Z,23.00
2024-01-15T04:23:41.152Z,28.80
2024-01-15T04:27:09.305Z,17.10
2024-01-15T04:30:38.806Z,17.30
2024-01-15T04:37:30.942Z,17.40
2024-01-15T04:40:58.595Z,16.70
2024-01-15T04:44:25.858Z,16.00
2024-01-15T04:47:52.892Z,19.70
2024-01-15T04:51:19.617Z,17.20
2024-01-15T04:54:46.606Z,19.70
2024-01-15T04:58:13.501Z,18.20
2024-01-15T05:01:40.308Z,16.20
2024-01-15T05:05:07.725Z,17.80
2024-01-15T05:08:34.478Z,21.30
2024-01-15T05:12:01.229Z,14.70
2024-01-15T05:15:28.131Z,13.20
2024-01-15T05:18:56.016Z,16.30
2024-01-15T05:22:22.859Z,14.00
2024-01-15T05:25:49.858Z,12.30
2024-01-15T05:29:17.026Z,16.00
2024-01-15T05:32:44.201Z,16.00
2024-01-15T05:36:11.633Z,13.70
2024-01-15T05:39:38.524Z,14.40
2024-01-15T05:43:05.423Z,13.40
2024-01-15T05:46:32.163Z,17.90
2024-01-15T05:50:00.513Z,14.50
2024-01-15T05:53:27.537Z,13.10
2024-01-15T05:56:54.265Z,16.00
2024-01-15T06:00:21.878Z,18.10
2024-01-15T06:03:48.865Z,20.40
2024-01-15T06:07:15.692Z,18.00
2024-01-15T06:10:42.495Z,17.40
2024-01-15T06:14:09.246Z,18.20
2024-01-15T06:17:36.223Z,17.50
2024-01-15T06:21:03.178Z,16.20
2024-01-15T06:24:29.960Z,15.90
2024-01-15T06:27:56.961Z,13.20
2024-01-15T06:31:23.922Z,21.00
2024-01-15T06:34:50.930Z,21.80
2024-01-15T06:38:17.901Z,20.10
2024-01-15T06:41:45.610Z,18.40
2024-01-15T06:45:13.445Z,13.80
2024-01-15T06:48:40.398Z,18.30
2024-01-15T06:52:08.610Z,16.70
2024-01-15T06:55:35.433Z,14.20
2024-01-15T06:59:02.344Z,14.40
2024-01-15T07:02:29.151Z,13.30
2024-01-15T07:05:55.964Z,13.30
2024-01-15T07:09:22.857Z,14.30
2024-01-15T07:12:49.902Z,15.60
2024-01-15T07:16:30.104Z,16.00
2024-01-15T07:20:04.844Z,15.30
2024-01-15T07:23:34.061Z,14.50
2024-01-15T07:27:00.895Z,21.60
2024-01-15T07:30:28.195Z,31.40
2024-01-15T07:33:55.143Z,26.00
2024-01-15T07:37:21.956Z,18.40
2024-01-15T07:40:50.675Z,20.90
2024-01-15T07:44:17.795Z,18.80
2024-01-15T07:47:45.559Z,14.50
2024-01-15T07:51:12.977Z,17.50
2024-01-15T07:54:39.843Z,20.00
2024-01-15T07:58:15.564Z,18.70
2024-01-15T08:01:43.833Z,20.30
2024-01-15T08:05:10.946Z,17.30
2024-01-15T08:08:37.971Z,25.20
2024-01-15T08:12:07.193Z,17.00
2024-01-15T08:15:34.115Z,19.10
2024-01-15T08:19:01.537Z,18.30
2024-01-15T08:22:30.250Z,16.30
2024-01-15T08:25:59.279Z,21.30
2024-01-15T08:29:26.091Z,15.90
2024-01-15T08:32:53.492Z,17.40
2024-01-15T08:36:20.594Z,13.70
2024-01-15T08:39:50.238Z,18.40
2024-01-15T08:43:18.293Z,21.30
2024-01-15T08:46:45.625Z,13.90
2024-01-15T08:50:13.549Z,16.80
2024-01-15T08:53:41.299Z,14.00
2024-01-15T08:57:12.879Z,15.30
2024-01-15T09:00:40.313Z,16.70
2024-01-15T09:04:07.779Z,16.10
2024-01-15T09:07:36.097Z,13.20
2024-01-15T09:11:04.181Z,17.20
2024-01-15T09:14:36.722Z,14.00
2024-01-15T09:18:08.386Z,15.00
2024-01-15T09:21:36.408Z,12.80
2024-01-15T09:25:04.678Z,16.30
2024-01-15T09:28:32.383Z,18.50
2024-01-15T09:32:00.627Z,17.90
2024-01-15T09:35:28.055Z,19.90
2024-01-15T09:38:55.817Z,13.70
2024-01-15T09:42:24.592Z,13.00
2024-01-15T09:45:53.603Z,14.80
2024-01-15T09:49:22.127Z,13.80
2024-01-15T09:52:53.648Z,12.70
2024-01-15T09:56:25.156Z,10.30
2024-01-15T09:59:55.527Z,12.00
2024-01-15T10:03:23.790Z,12.50
2024-01-15T10:07:03.241Z,14.30
2024-01-15T10:10:30.324Z,11.10
2024-01-15T10:14:00.091Z,13.60
2024-01-15T10:20:55.126Z,44.90
2024-01-15T10:24:25.448Z,18.40
2024-01-15T10:28:04.454Z,14.10
2024-01-15T10:31:33.707Z,16.50
2024-01-15T10:35:04.113Z,17.90
2024-01-15T10:38:34.695Z,10.20
2024-01-15T10:42:01.825Z,22.00
2024-01-15T10:45:29.145Z,18.00
2024-01-15T10:48:56.324Z,12.30
2024-01-15T10:52:24.376Z,15.00
2024-01-15T10:55:52.681Z,14.50
2024-01-15T10:59:22.550Z,25.20
2024-01-15T11:02:50.153Z,12.90
2024-01-15T11:06:30.569Z,10.80
2024-01-15T11:09:59.772Z,9.70
2024-01-15T11:17:10.944Z,13.40
2024-01-15T11:20:38.338Z,9.80
2024-01-15T11:24:08.052Z,14.10
2024-01-15T11:31:15.556Z,9.40
2024-01-15T11:35:00.036Z,12.90
2024-01-15T11:38:32.349Z,10.70
2024-01-15T11:42:02.459Z,15.10
2024-01-15T11:45:32.359Z,12.00
2024-01-15T11:49:08.264Z,11.90
2024-01-15T11:52:38.834Z,17.90
2024-01-15T11:56:16.984Z,9.20
2024-01-15T11:59:45.153Z,11.40
2024-01-15T12:03:13.948Z,8.80
2024-01-15T12:06:42.297Z,10.00
2024-01-15T12:10:15.362Z,16.70
2024-01-15T12:13:43.865Z,15.30
2024-01-15T12:17:13.526Z,6.60
2024-01-15T12:20:41.873Z,12.30
2024-01-15T12:24:11.079Z,15.50
2024-01-15T12:27:40.247Z,26.30
2024-01-15T12:31:07.845Z,13.00
2024-01-15T12:34:34.890Z,14.40
2024-01-15T12:38:04.859Z,10.90
2024-01-15T12:41:32.071Z,14.80
2024-01-15T12:45:00.593Z,10.00
2024-01-15T12:48:27.731Z,7.50
2024-01-15T12:51:59.097Z,20.90
2024-01-15T12:55:26.155Z,31.30
2024-01-15T12:58:53.043Z,31.60
2024-01-15T13:02:19.953Z,20.10
2024-01-15T13:05:47.895Z,14.60
2024-01-15T13:09:15.827Z,13.10
2024-01-15T13:12:44.015Z,13.10
2024-01-15T13:16:12.058Z,12.50
2024-01-15T13:19:39.099Z,34.70
2024-01-15T13:23:06.222Z,9.00
2024-01-15T13:26:33.328Z,15.40
2024-01-15T13:30:01.525Z,17.00
2024-01-15T13:33:29.063Z,10.00
2024-01-15T13:36:57.151Z,11.20
2024-01-15T13:40:24.192Z,16.90
2024-01-15T13:43:54.107Z,13.80
2024-01-15T13:47:21.791Z,8.50
2024-01-15T13:50:48.955Z,11.50
2024-01-15T13:54:15.865Z,13.80
2024-01-15T13:57:43.373Z,9.80
2024-01-15T14:01:10.567Z,16.10
2024-01-15T14:04:37.534Z,15.90
2024-01-15T14:08:04.846Z,19.90
2024-01-15T14:11:31.724Z,14.20
2024-01-15T14:14:58.578Z,20.70
2024-01-15T14:18:25.516Z,17.80
2024-01-15T14:21:52.589Z,20.70
2024-01-15T14:25:21.644Z,15.60
2024-01-15T14:28:51.771Z,18.20
2024-01-15T14:32:19.374Z,43.10
2024-01-15T14:35:46.349Z,22.00
2024-01-15T14:39:13.466Z,19.80
2024-01-15T14:42:40.414Z,17.50
2024-01-15T14:46:07.702Z,46.40
2024-01-15T14:49:35.034Z,10.20
2024-01-15T14:53:02.017Z,4.90
2024-01-15T14:56:30.259Z,3.40
2024-01-15T14:59:57.176Z,6.00
2024-01-15T15:03:24.219Z,6.00
2024-01-15T15:06:51.434Z,9.00
2024-01-15T15:10:18.721Z,8.80
2024-01-15T15:13:47.417Z,11.00
2024-01-15T15:17:15.780Z,11.80
2024-01-15T15:20:43.167Z,7.40
2024-01-15T15:24:11.606Z,10.50
2024-01-15T15:27:38.910Z,10.10
2024-01-15T15:31:08.787Z,12.90
2024-01-15T15:34:36.333Z,9.90
2024-01-15T15:38:03.846Z,9.90
2024-01-15T15:41:30.828Z,6.70
2024-01-15T15:45:00.551Z,9.10
2024-01-15T15:48:29.300Z,7.20
2024-01-15T15:51:57.330Z,7.60
2024-01-15T15:55:25.139Z,8.70
2024-01-15T15:58:54.824Z,12.30
2024-01-15T16:02:22.974Z,14.50
2024-01-15T16:05:53.248Z,20.30
2024-01-15T16:09:21.355Z,8.00
2024-01-15T16:12:48.960Z,9.50
2024-01-15T16:23:10.413Z,5.50
2024-01-15T16:23:29.144Z,6.50
2024-01-15T16:24:12.766Z,7.60
2024-01-15T16:27:43.509Z,11.20
2024-01-15T16:31:11.368Z,6.60
2024-01-15T16:34:38.589Z,9.90
2024-01-15T16:38:06.070Z,7.50
2024-01-15T16:41:33.292Z,51.30
2024-01-15T16:45:00.346Z,44.20
2024-01-15T16:48:30.668Z,24.90
2024-01-15T16:51:57.566Z,15.10
2024-01-15T16:55:24.339Z,9.90
2024-01-15T16:58:51.464Z,9.10
2024-01-15T17:02:18.339Z,9.90
2024-01-15T17:05:45.154Z,6.20
2024-01-15T17:09:12.137Z,9.00
2024-01-15T17:12:39.587Z,7.80
2024-01-15T17:16:07.413Z,8.60
2024-01-15T17:19:34.533Z,6.90
2024-01-15T17:23:01.834Z,9.90
2024-01-15T17:26:29.047Z,14.20
2024-01-15T17:29:56.795Z,7.70
2024-01-15T17:33:24.134Z,8.50
2024-01-15T17:36:51.082Z,7.50
2024-01-15T17:40:18.590Z,9.20
2024-01-15T17:43:46.179Z,17.10
2024-01-15T17:47:13.930Z,8.20
2024-01-15T17:50:42.163Z,6.90
2024-01-15T17:54:12.285Z,4.10
2024-01-15T17:57:41.228Z,6.40
2024-01-15T18:01:12.577Z,10.40
2024-01-15T18:04:43.262Z,13.30
2024-01-15T18:08:14.917Z,11.00
2024-01-15T18:11:42.794Z,14.50
2024-01-15T18:15:12.833Z,7.20
2024-01-15T18:18:41.182Z,7.40
2024-01-15T18:22:10.531Z,4.30
2024-01-15T18:25:54.996Z,5.70
2024-01-15T18:29:29.963Z,5.80
2024-01-15T18:32:57.596Z,8.30
2024-01-15T18:36:30.901Z,10.80
2024-01-15T18:40:01.440Z,5.40
2024-01-15T18:43:42.771Z,6.90
2024-01-15T18:47:10.445Z,10.70
2024-01-15T18:50:40.922Z,11.20
2024-01-15T18:54:10.169Z,9.50
2024-01-15T18:57:43.276Z,9.90
2024-01-15T19:01:11.220Z,11.90
2024-01-15T19:04:41.428Z,13.30
2024-01-15T19:08:09.489Z,8.70
2024-01-15T19:11:36.743Z,8.60
2024-01-15T19:15:06.730Z,8.70
2024-01-15T19:18:35.096Z,4.30
2024-01-15T19:22:07.022Z,10.30
2024-01-15T19:25:39.200Z,7.10
2024-01-15T19:29:09.137Z,7.20
2024-01-15T19:32:36.258Z,5.90
2024-01-15T19:36:03.140Z,6.00
2024-01-15T19:39:30.008Z,4.70
2024-01-15T19:42:57.059Z,7.30
2024-01-15T19:46:23.951Z,13.60
2024-01-15T19:49:51.088Z,11.90
2024-01-15T19:53:18.000Z,12.20
2024-01-15T19:56:45.633Z,10.50
2024-01-15T20:00:14.170Z,9.40
2024-01-15T20:03:46.388Z,8.30
2024-01-15T20:07:13.946Z,8.50
2024-01-15T20:10:45.477Z,8.20
2024-01-15T20:14:13.506Z,7.90
2024-01-15T20:17:46.538Z,10.30
2024-01-15T20:21:16.092Z,6.60
2024-01-15T20:24:43.066Z,1.70
2024-01-15T20:31:39.235Z,21.80
2024-01-15T20:35:06.592Z,9.20
2024-01-15T20:38:33.424Z,3.10
2024-01-15T20:42:00.252Z,5.20
2024-01-15T20:45:29.212Z,8.80
2024-01-15T20:48:57.776Z,4.30
2024-01-15T20:52:25.659Z,4.30
2024-01-15T20:55:52.900Z,5.60
2024-01-15T20:59:20.180Z,7.70
2024-01-15T21:02:47.352Z,3.00
2024-01-15T21:06:15.108Z,3.40
2024-01-15T21:09:42.038Z,3.10
2024-01-15T21:13:09.228Z,4.70
2024-01-15T21:16:36.127Z,4.80
2024-01-15T21:20:09.451Z,4.50
2024-01-15T21:23:36.683Z,3.60
2024-01-15T21:27:05.391Z,6.70
2024-01-15T21:30:36.904Z,5.50
2024-01-15T21:34:04.358Z,9.90
2024-01-15T21:37:32.471Z,6.90
2024-01-15T21:40:59.531Z,8.40
2024-01-15T21:44:26.779Z,6.00
2024-01-15T21:47:56.601Z,7.80
2024-01-15T21:51:23.851Z,8.90
2024-01-15T21:54:50.851Z,6.80
2024-01-15T21:58:18.596Z,5.10
2024-01-15T22:01:52.982Z,5.60
2024-01-15T22:05:23.405Z,5.50
2024-01-15T22:08:52.317Z,8.60
2024-01-15T22:12:19.421Z,8.50
2024-01-15T22:15:46.506Z,9.70
2024-01-15T22:19:13.549Z,7.40
2024-01-15T22:22:42.097Z,12.70
2024-01-15T22:26:10.978Z,14.00
2024-01-15T22:29:38.049Z,13.60
2024-01-15T22:33:05.464Z,13.10
2024-01-15T22:36:32.513Z,15.70
2024-01-15T22:39:59.547Z,9.40
2024-01-15T22:43:26.760Z,9.30
2024-01-15T22:46:53.654Z,11.00
2024-01-15T22:50:20.588Z,22.90
2024-01-15T22:53:51.619Z,15.90
2024-01-15T22:57:21.617Z,7.10
2024-01-15T23:00:50.315Z,7.80
2024-01-15T23:04:17.488Z,9.30
2024-01-15T23:07:44.378Z,20.60
2024-01-15T23:11:12.886Z,19.30
2024-01-15T23:14:39.717Z,7.70
2024-01-15T23:18:08.197Z,8.60
2024-01-15T23:21:35.391Z,18.10
2024-01-15T23:25:02.653Z,17.80
2024-01-15T23:28:29.607Z,9.30
2024-01-15T23:31:57.766Z,16.10
2024-01-15T23:35:24.594Z,22.70
2024-01-15T23:38:51.601Z,21.80
2024-01-15T23:42:18.403Z,19.20
2024-01-15T23:45:46.375Z,11.00
2024-01-15T23:49:14.755Z,5.80
2024-01-15T23:52:41.793Z,5.50
2024-01-15T23:56:10.737Z,6.70
2024-01-15T23:59:39.465Z,4.70
